Time;durP1;ratioP1;P1;durP2;ratioP2;P2;SDS_P1;SDS_P2;PMS_P1;PMS_P2;Temp;Humidity;BMP_temperature;BMP_pressure;BME280_temperature;BME280_humidity;BME280_pressure;Samples;Min_cycle;Max_cycle;Signal;HPM_P1;HPM_P2
2021/10/09 00:00:58;;;;;;;;;26.00;22.50;;;;;16.01;61.88;102266.91;5018943;28;45343;-79
2021/10/09 00:03:23;;;;;;;;;23.75;22.75;;;;;16.03;62.00;102274.81;5020473;28;45450;-81
2021/10/09 00:05:49;;;;;;;;;24.75;20.75;;;;;15.98;61.98;102264.16;5018830;28;45206;-85
2021/10/09 00:08:16;;;;;;;;;29.50;22.50;;;;;16.00;61.76;102275.56;5018745;28;45284;-85
2021/10/09 00:10:43;;;;;;;;;21.00;19.00;;;;;15.98;62.06;102268.50;5019013;28;45338;-87
2021/10/09 00:13:10;;;;;;;;;21.00;20.25;;;;;15.98;61.95;102271.97;5019216;28;45494;-80
2021/10/09 00:15:35;;;;;;;;;19.75;18.25;;;;;15.96;62.32;102267.53;5018594;28;45939;-79
2021/10/09 00:18:01;;;;;;;;;20.50;20.50;;;;;15.93;62.22;102268.25;5017701;28;45344;-80
2021/10/09 00:20:31;;;;;;;;;25.75;22.00;;;;;15.88;62.01;102259.31;5022799;28;45313;-79
2021/10/09 00:22:57;;;;;;;;;20.75;19.50;;;;;15.88;62.08;102257.59;5027446;28;45431;-78
2021/10/09 00:25:24;;;;;;;;;20.25;18.50;;;;;15.92;62.24;102269.97;5023069;28;45439;-86
2021/10/09 00:27:50;;;;;;;;;19.50;17.00;;;;;15.92;62.55;102271.72;5021118;28;45306;-83
2021/10/09 00:30:16;;;;;;;;;21.00;19.25;;;;;15.88;62.14;102262.81;5020510;28;45375;-87
2021/10/09 00:32:41;;;;;;;;;27.00;24.00;;;;;15.88;62.17;102262.81;5022198;28;45459;-80
2021/10/09 00:35:07;;;;;;;;;22.50;18.50;;;;;15.90;62.16;102273.34;5020712;28;45882;-82
2021/10/09 00:37:33;;;;;;;;;21.75;21.50;;;;;15.88;62.32;102264.53;5020061;28;45266;-84
2021/10/09 00:39:59;;;;;;;;;19.50;18.50;;;;;15.86;62.78;102259.25;5020096;28;45204;-88
2021/10/09 00:42:25;;;;;;;;;22.25;21.25;;;;;15.85;62.07;102270.53;5018683;28;45249;-80
2021/10/09 00:44:51;;;;;;;;;22.50;21.75;;;;;15.78;62.16;102247.50;5017411;28;45388;-88
2021/10/09 00:47:17;;;;;;;;;25.50;21.50;;;;;15.82;62.55;102254.69;5017827;28;45326;-82
2021/10/09 00:49:43;;;;;;;;;26.50;23.50;;;;;15.83;62.46;102269.53;5018752;28;45314;-86
2021/10/09 00:52:11;;;;;;;;;21.00;19.75;;;;;15.80;62.44;102261.53;5019880;28;45376;-88
2021/10/09 00:54:45;;;;;;;;;21.50;21.00;;;;;15.77;62.34;102261.38;5017208;28;47685;-85
2021/10/09 00:57:13;;;;;;;;;21.75;20.25;;;;;15.77;62.36;102256.16;5017346;28;45321;-84
2021/10/09 00:59:41;;;;;;;;;25.75;23.75;;;;;15.82;62.21;102259.03;5033315;28;45490;-87
2021/10/09 01:02:07;;;;;;;;;20.00;19.25;;;;;15.79;62.25;102260.66;5018127;28;45516;-87
2021/10/09 01:04:34;;;;;;;;;27.50;24.50;;;;;15.76;62.13;102257.91;5018750;28;46479;-87
2021/10/09 01:07:01;;;;;;;;;26.25;23.50;;;;;15.78;62.73;102269.31;5023635;28;45306;-87
2021/10/09 01:09:26;;;;;;;;;28.00;23.75;;;;;15.75;62.20;102263.94;5020674;28;45248;-88
2021/10/09 01:11:52;;;;;;;;;20.75;20.00;;;;;15.75;62.68;102270.88;5020836;28;45595;-88
2021/10/09 01:14:18;;;;;;;;;23.75;21.50;;;;;15.74;62.40;102256.91;5020160;28;45381;-80
2021/10/09 01:16:46;;;;;;;;;26.75;24.75;;;;;15.70;62.64;102254.09;5019552;28;45371;-82
2021/10/09 01:19:12;;;;;;;;;25.50;23.75;;;;;15.71;62.21;102263.72;5019551;28;45350;-82
2021/10/09 01:21:40;;;;;;;;;28.25;25.75;;;;;15.67;62.31;102262.69;5019511;28;45525;-79
2021/10/09 01:24:06;;;;;;;;;23.50;21.25;;;;;15.68;62.53;102264.47;5017010;28;46088;-81
2021/10/09 01:26:32;;;;;;;;;26.25;23.00;;;;;15.66;62.37;102260.03;5016793;28;45472;-83
2021/10/09 01:28:58;;;;;;;;;33.75;26.50;;;;;15.61;62.12;102255.47;5016262;28;45457;-80
2021/10/09 01:31:23;;;;;;;;;28.50;23.50;;;;;15.65;62.71;102256.50;5017069;28;45297;-80
2021/10/09 01:33:49;;;;;;;;;21.50;20.25;;;;;15.64;62.64;102259.94;5016091;28;46082;-82
2021/10/09 01:36:14;;;;;;;;;24.00;23.00;;;;;15.59;62.58;102259.72;5015253;28;45255;-78
2021/10/09 01:38:40;;;;;;;;;27.75;23.50;;;;;15.46;62.36;102237.34;5017505;28;45336;-79
2021/10/09 01:41:07;;;;;;;;;25.25;22.50;;;;;15.55;62.96;102252.53;5017010;28;45499;-80
2021/10/09 01:43:33;;;;;;;;;31.25;26.25;;;;;15.41;62.65;102235.34;5016651;28;45423;-79
2021/10/09 01:45:59;;;;;;;;;25.25;22.00;;;;;15.34;62.84;102223.72;5016279;28;45327;-80
2021/10/09 01:48:30;;;;;;;;;24.50;23.00;;;;;15.50;63.02;102261.88;5016481;28;45380;-81
2021/10/09 01:50:56;;;;;;;;;22.75;22.00;;;;;15.52;62.37;102248.91;5016315;28;45653;-80
2021/10/09 01:53:21;;;;;;;;;26.75;19.75;;;;;15.52;62.96;102259.34;5016263;28;45951;-86
2021/10/09 01:55:47;;;;;;;;;23.50;22.25;;;;;15.43;62.39;102236.31;5016997;28;45266;-84
2021/10/09 01:58:12;;;;;;;;;26.00;21.50;;;;;15.50;62.93;102247.91;5028759;28;45420;-82
2021/10/09 02:00:38;;;;;;;;;18.50;18.50;;;;;15.48;62.83;102255.69;5015810;28;45356;-87
2021/10/09 02:03:05;;;;;;;;;23.25;20.50;;;;;15.37;62.85;102242.16;5025821;28;45280;-79
2021/10/09 02:05:34;;;;;;;;;27.00;24.25;;;;;15.42;62.42;102243.25;5036013;28;45133;-84
2021/10/09 02:08:01;;;;;;;;;27.25;25.25;;;;;15.43;62.46;102252.88;5025172;28;45235;-84
2021/10/09 02:10:28;;;;;;;;;26.00;24.25;;;;;15.42;62.83;102258.03;5023284;28;45581;-82
2021/10/09 02:12:54;;;;;;;;;23.00;21.00;;;;;15.41;63.00;102258.84;5020687;28;46180;-87
2021/10/09 02:15:25;;;;;;;;;23.25;20.50;;;;;15.36;62.39;102239.44;5016659;28;45263;-85
2021/10/09 02:25:46;;;;;;;;;27.25;22.00;;;;;15.35;62.70;102243.78;5017406;28;45247;-87
2021/10/09 02:28:17;;;;;;;;;26.25;22.50;;;;;15.33;62.81;102234.97;5020686;28;45299;-84
2021/10/09 02:30:43;;;;;;;;;23.25;20.75;;;;;15.35;62.76;102254.22;5016357;28;45494;-79
2021/10/09 02:33:09;;;;;;;;;25.25;22.75;;;;;15.31;62.72;102232.31;5016358;28;46061;-86
2021/10/09 02:35:36;;;;;;;;;30.75;24.25;;;;;15.36;63.04;102247.28;5016297;28;45319;-87
2021/10/09 02:38:02;;;;;;;;;23.25;21.25;;;;;15.36;62.85;102245.56;5016059;28;45228;-86
2021/10/09 02:40:28;;;;;;;;;25.00;22.25;;;;;15.35;62.74;102240.25;5025198;28;45397;-86
2021/10/09 02:42:54;;;;;;;;;27.75;24.00;;;;;15.35;62.70;102243.78;5023268;28;45787;-85
2021/10/09 02:45:19;;;;;;;;;18.00;16.00;;;;;15.31;62.79;102237.53;5021213;28;45342;-86
2021/10/09 02:47:45;;;;;;;;;22.50;21.50;;;;;15.26;62.76;102238.13;5019731;28;45264;-86
2021/10/09 02:50:13;;;;;;;;;24.50;21.25;;;;;15.26;62.61;102240.72;5018570;28;45422;-82
2021/10/09 02:52:40;;;;;;;;;24.25;20.25;;;;;15.22;63.20;102234.47;5020073;28;45302;-86
2021/10/09 02:55:07;;;;;;;;;26.25;22.75;;;;;15.24;62.96;102242.38;5026625;28;45181;-84
2021/10/09 02:57:32;;;;;;;;;24.75;22.00;;;;;15.22;63.23;102239.69;5026485;28;44909;-80
2021/10/09 02:59:58;;;;;;;;;24.50;21.25;;;;;15.24;62.83;102242.38;5022716;28;45554;-84
2021/10/09 03:02:23;;;;;;;;;24.25;23.25;;;;;15.21;63.14;102240.50;5022309;28;45632;-86
2021/10/09 03:04:49;;;;;;;;;26.00;24.25;;;;;15.21;63.06;102243.13;5019179;28;45354;-86
2021/10/09 03:07:15;;;;;;;;;30.00;26.00;;;;;15.20;63.05;102243.94;5020855;28;45325;-86
2021/10/09 03:09:40;;;;;;;;;24.25;22.00;;;;;15.11;62.95;102227.84;5022216;28;45315;-86
2021/10/09 03:12:06;;;;;;;;;27.00;21.75;;;;;15.15;62.73;102238.50;5024120;28;45911;-85
2021/10/09 03:14:31;;;;;;;;;30.25;24.75;;;;;15.13;63.12;102242.75;5021346;28;45439;-85
2021/10/09 03:16:57;;;;;;;;;25.00;23.75;;;;;15.06;62.95;102242.34;5019541;28;45359;-86
2021/10/09 03:19:23;;;;;;;;;22.75;21.75;;;;;14.96;62.71;102247.13;5018954;28;45528;-85
2021/10/09 03:21:48;;;;;;;;;29.25;24.75;;;;;14.89;62.94;102236.28;5018720;28;45400;-88
2021/10/09 03:24:14;;;;;;;;;28.50;24.50;;;;;14.85;63.15;102248.28;5022543;28;45422;-84
2021/10/09 03:26:40;;;;;;;;;29.75;28.00;;;;;14.80;63.17;102242.84;5019484;28;45319;-86
2021/10/09 03:29:05;;;;;;;;;26.50;22.25;;;;;14.73;63.25;102239.84;5019955;28;45262;-85
2021/10/09 03:31:31;;;;;;;;;30.75;26.00;;;;;14.70;63.50;102244.06;5029791;28;46090;-86
2021/10/09 03:33:57;;;;;;;;;26.00;23.00;;;;;14.69;63.42;102241.41;5022031;28;45354;-86
2021/10/09 03:36:22;;;;;;;;;28.50;22.75;;;;;14.59;63.05;102237.38;5018718;28;45177;-87
2021/10/09 03:38:48;;;;;;;;;29.75;25.50;;;;;14.61;63.40;102240.97;5022239;28;45479;-87
2021/10/09 03:41:15;;;;;;;;;32.00;27.75;;;;;14.62;63.41;102249.69;5024994;28;46472;-87
2021/10/09 03:43:43;;;;;;;;;28.50;25.25;;;;;14.56;63.73;102239.84;5022084;28;45321;-87
2021/10/09 03:46:28;;;;;;;;;32.25;27.00;;;;;14.55;63.10;102245.88;5027247;28;45456;-87
2021/10/09 03:54:07;;;;;;;;;32.50;28.00;;;;;14.45;63.13;102234.06;5023085;28;45330;-78
2021/10/09 03:56:32;;;;;;;;;28.25;24.25;;;;;14.47;63.26;102245.47;5018491;28;45404;-79
2021/10/09 03:58:58;;;;;;;;;30.00;24.75;;;;;14.47;63.60;102242.88;5017814;28;45468;-81
2021/10/09 04:01:24;;;;;;;;;28.00;24.75;;;;;14.40;63.07;102240.78;5016277;28;47080;-79
2021/10/09 04:03:49;;;;;;;;;27.25;24.00;;;;;14.36;63.26;102237.09;5017509;28;45306;-80
2021/10/09 04:06:15;;;;;;;;;28.50;25.50;;;;;14.28;63.18;102222.78;5017895;28;45322;-80
2021/10/09 04:08:40;;;;;;;;;24.00;22.50;;;;;14.36;63.47;102234.47;5018310;28;45466;-80
2021/10/09 04:11:06;;;;;;;;;32.75;28.25;;;;;14.37;63.72;102235.41;5017289;28;45858;-81
2021/10/09 04:13:31;;;;;;;;;27.00;27.00;;;;;14.35;63.76;102232.72;5016258;28;45325;-80
2021/10/09 04:15:57;;;;;;;;;29.25;26.25;;;;;14.24;63.41;102220.84;5019958;28;45857;-84
2021/10/09 04:18:23;;;;;;;;;29.00;22.75;;;;;14.34;63.64;102238.75;5019383;28;45433;-83
2021/10/09 04:20:48;;;;;;;;;24.00;22.75;;;;;14.28;63.57;102227.09;5020620;28;45353;-78
2021/10/09 04:23:14;;;;;;;;;28.00;26.75;;;;;14.28;63.62;102232.31;5030847;28;45252;-79
2021/10/09 04:25:39;;;;;;;;;26.75;24.50;;;;;14.31;63.61;102241.19;5022416;28;45265;-84
2021/10/09 04:28:05;;;;;;;;;32.00;26.50;;;;;14.31;63.59;102240.25;5018535;28;45378;-85
2021/10/09 04:30:31;;;;;;;;;27.50;27.25;;;;;14.28;63.65;102234.91;5017571;28;45327;-83
2021/10/09 04:32:57;;;;;;;;;25.25;25.00;;;;;14.22;63.80;102220.75;5021199;28;45334;-82
2021/10/09 04:35:23;;;;;;;;;26.25;25.75;;;;;14.26;64.09;102226.13;5025312;28;45193;-83
2021/10/09 04:37:48;;;;;;;;;31.25;28.25;;;;;14.26;63.91;102228.72;5023503;28;45334;-84
2021/10/09 04:40:14;;;;;;;;;24.75;23.25;;;;;14.23;64.35;102219.03;5023556;28;46001;-82
2021/10/09 04:42:39;;;;;;;;;30.00;26.00;;;;;14.23;63.67;102213.84;5020406;28;45338;-85
2021/10/09 04:45:06;;;;;;;;;26.00;25.50;;;;;14.26;64.49;102223.50;5018913;28;45337;-81
2021/10/09 04:47:31;;;;;;;;;26.50;24.50;;;;;14.27;64.01;102225.31;5023462;28;45638;-85
2021/10/09 04:49:57;;;;;;;;;31.50;27.75;;;;;14.24;64.08;102215.63;5021892;28;46022;-86
2021/10/09 04:52:22;;;;;;;;;31.75;29.00;;;;;14.24;64.36;102218.25;5018115;28;45441;-80
2021/10/09 04:54:48;;;;;;;;;29.25;26.50;;;;;14.28;64.49;102214.06;5017177;28;45327;-81
2021/10/09 04:57:14;;;;;;;;;30.25;27.75;;;;;14.28;64.49;102222.78;5017779;28;45350;-87
2021/10/09 04:59:39;;;;;;;;;34.00;29.50;;;;;14.26;64.32;102213.97;5018835;28;45837;-83
2021/10/09 05:02:05;;;;;;;;;33.00;26.75;;;;;14.27;64.76;102220.09;5018968;28;45300;-86
2021/10/09 05:04:30;;;;;;;;;38.75;31.25;;;;;14.24;64.51;102211.31;5019323;28;45411;-84
2021/10/09 05:06:56;;;;;;;;;29.50;27.25;;;;;14.25;64.60;102214.81;5031407;28;45409;-88
2021/10/09 05:09:22;;;;;;;;;39.00;31.25;;;;;14.29;64.46;102221.97;5033614;28;46771;-79
2021/10/09 05:11:47;;;;;;;;;37.75;32.25;;;;;14.31;64.21;102224.63;5032839;28;45355;-83
2021/10/09 05:14:13;;;;;;;;;34.00;30.75;;;;;14.28;64.87;102214.97;5019850;28;45185;-80
2021/10/09 05:16:38;;;;;;;;;36.75;30.50;;;;;14.18;64.41;102199.66;5021104;28;45315;-82
2021/10/09 05:19:04;;;;;;;;;31.25;29.00;;;;;14.27;64.86;102215.78;5020383;28;45971;-83
2021/10/09 05:21:29;;;;;;;;;35.75;30.75;;;;;14.31;64.44;102220.34;5024352;28;45219;-84
2021/10/09 05:23:56;;;;;;;;;34.75;31.25;;;;;14.26;64.58;102216.59;5023040;28;45308;-83
2021/10/09 05:26:22;;;;;;;;;40.75;30.50;;;;;14.31;64.62;102225.53;5021632;28;45330;-84
2021/10/09 05:28:48;;;;;;;;;35.75;30.00;;;;;14.29;64.67;102226.28;5019741;28;45470;-83
2021/10/09 05:31:25;;;;;;;;;41.75;32.50;;;;;14.28;64.46;102232.31;5017967;28;45333;-87
2021/10/09 05:33:52;;;;;;;;;34.75;30.50;;;;;14.17;64.86;102229.13;5017306;28;45318;-83
2021/10/09 05:36:19;;;;;;;;;33.50;31.00;;;;;14.16;64.33;102233.47;5017743;28;45573;-84
2021/10/09 05:38:45;;;;;;;;;38.50;32.75;;;;;14.09;64.41;102219.22;5016724;28;45429;-86
2021/10/09 05:41:11;;;;;;;;;33.75;30.25;;;;;14.06;64.37;102232.06;5017600;28;45893;-81
2021/10/09 05:43:36;;;;;;;;;32.50;30.25;;;;;13.96;64.46;102223.69;5018069;28;45301;-81
2021/10/09 05:46:02;;;;;;;;;33.00;30.00;;;;;13.97;64.51;102235.91;5017049;28;46068;-80
2021/10/09 05:48:28;;;;;;;;;36.25;32.75;;;;;13.95;64.49;102235.78;5020028;28;46379;-81
2021/10/09 05:51:03;;;;;;;;;35.50;30.00;;;;;13.97;64.50;102241.09;5018618;28;45392;-82
2021/10/09 05:59:00;;;;;;;;;34.25;30.00;;;;;13.81;64.94;102248.06;5016326;28;45347;-87
2021/10/09 06:31:15;;;;;;;;;40.50;34.00;;;;;13.38;64.76;102264.78;5023372;28;45227;-86
2021/10/09 06:32:01;;;;;;;;;37.25;32.75;;;;;13.38;64.84;102276.88;5019028;28;45386;-79
2021/10/09 06:45:18;;;;;;;;;35.50;32.00;;;;;13.29;65.14;102291.16;5018282;28;45314;-78
2021/10/09 07:01:23;;;;;;;;;36.50;32.50;;;;;13.14;65.38;102288.56;5020715;28;45332;-80
2021/10/09 07:03:48;;;;;;;;;44.75;36.25;;;;;13.23;65.05;102302.91;5018429;28;46255;-80
2021/10/09 07:06:16;;;;;;;;;39.25;33.00;;;;;13.25;65.29;102312.56;5018561;28;45276;-79
2021/10/09 07:08:42;;;;;;;;;49.25;36.00;;;;;13.29;65.15;102314.56;5019242;28;45293;-80
2021/10/09 07:11:08;;;;;;;;;46.00;35.50;;;;;13.28;65.36;102322.28;5019009;28;45340;-79
2021/10/09 07:13:34;;;;;;;;;43.00;34.50;;;;;13.21;65.38;102310.63;5018337;28;45352;-81
2021/10/09 07:16:00;;;;;;;;;40.25;33.25;;;;;13.28;65.63;102320.56;5018215;28;45440;-81
2021/10/09 07:18:26;;;;;;;;;40.25;32.50;;;;;13.26;65.53;102316.09;5018377;28;45283;-80
2021/10/09 07:20:52;;;;;;;;;43.25;34.25;;;;;13.30;65.43;102323.25;5018214;28;45550;-80
2021/10/09 07:23:17;;;;;;;;;45.25;35.75;;;;;13.30;65.52;102328.44;5018160;28;46148;-80
2021/10/09 07:25:43;;;;;;;;;46.75;36.00;;;;;13.36;65.47;102327.91;5018534;28;45365;-80
2021/10/09 07:28:08;;;;;;;;;44.25;37.50;;;;;13.35;65.35;102318.31;5018765;28;45371;-80
2021/10/09 07:30:34;;;;;;;;;43.00;36.25;;;;;13.45;65.60;102336.28;5018286;28;45228;-79
2021/10/09 07:33:01;;;;;;;;;46.25;38.25;;;;;13.44;65.46;102332.78;5017748;28;46042;-80
2021/10/09 07:35:26;;;;;;;;;46.50;37.00;;;;;13.50;65.40;102337.44;5018918;28;45873;-79
2021/10/09 07:37:52;;;;;;;;;42.00;32.75;;;;;13.56;65.42;102342.09;5019205;28;45319;-79
2021/10/09 07:40:19;;;;;;;;;42.75;34.75;;;;;13.58;64.97;102351.78;5020043;28;45233;-79
2021/10/09 07:42:45;;;;;;;;;46.00;36.50;;;;;13.60;65.27;102334.56;5018465;28;45560;-79
2021/10/09 07:45:11;;;;;;;;;47.50;39.25;;;;;13.65;65.41;102341.75;5025588;28;45303;-79
2021/10/09 07:47:37;;;;;;;;;44.25;36.50;;;;;13.63;65.17;102336.44;5024868;28;45513;-80
2021/10/09 07:50:03;;;;;;;;;40.75;33.75;;;;;13.68;65.08;102335.00;5019770;28;45855;-79
2021/10/09 07:52:29;;;;;;;;;41.50;35.00;;;;;13.75;65.55;102349.25;5018795;28;45424;-79
2021/10/09 07:54:55;;;;;;;;;47.00;36.50;;;;;13.78;65.50;102354.63;5018206;28;45247;-80
2021/10/09 07:57:20;;;;;;;;;49.50;37.00;;;;;13.78;65.20;102341.59;5017902;28;45386;-80
2021/10/09 07:59:46;;;;;;;;;50.25;37.50;;;;;13.86;65.58;102353.38;5017796;28;45430;-79
2021/10/09 08:02:12;;;;;;;;;44.25;37.75;;;;;13.86;65.16;102348.16;5017411;28;45405;-80
2021/10/09 08:04:38;;;;;;;;;49.75;38.00;;;;;13.93;65.26;102357.19;5033064;28;45265;-81
2021/10/09 08:07:04;;;;;;;;;43.75;34.75;;;;;13.97;65.57;102355.69;5033100;28;45377;-81
2021/10/09 08:09:32;;;;;;;;;45.00;35.75;;;;;13.98;64.94;102355.75;5018270;28;45656;-83
2021/10/09 08:11:58;;;;;;;;;47.25;38.00;;;;;14.03;64.79;102358.59;5018812;28;45955;-80
2021/10/09 08:14:24;;;;;;;;;48.00;39.00;;;;;14.07;65.28;102357.97;5018375;28;45254;-81
2021/10/09 08:16:49;;;;;;;;;38.50;34.75;;;;;14.08;65.08;102358.06;5017468;28;45417;-80
2021/10/09 08:19:15;;;;;;;;;38.75;33.25;;;;;14.11;65.40;102356.44;5017911;28;45592;-81
2021/10/09 08:21:42;;;;;;;;;44.75;39.00;;;;;14.18;65.27;102366.38;5017561;28;45962;-83
2021/10/09 08:40:16;;;;;;;;;49.50;38.50;;;;;14.40;65.03;102358.03;5020963;28;45292;-82
2021/10/09 08:42:42;;;;;;;;;47.25;38.25;;;;;14.35;64.59;102336.03;5018324;28;45340;-81
2021/10/09 08:45:10;;;;;;;;;45.50;37.50;;;;;14.50;64.26;102356.78;5017457;28;45207;-80
2021/10/09 08:47:38;;;;;;;;;48.75;39.25;;;;;14.54;64.80;102350.94;5017077;28;45399;-81
2021/10/09 08:50:07;;;;;;;;;43.00;36.00;;;;;14.60;64.26;102352.97;5017310;28;45378;-81
2021/10/09 08:52:33;;;;;;;;;47.50;37.75;;;;;14.64;64.61;102344.50;5015693;28;46773;-80
2021/10/09 08:55:18;;;;;;;;;43.50;33.75;;;;;14.64;63.89;102337.59;5016637;28;45453;-81
2021/10/09 08:57:44;;;;;;;;;39.50;34.00;;;;;14.70;64.17;102344.88;5016874;28;45296;-82
2021/10/09 09:00:12;;;;;;;;;36.75;32.75;;;;;14.77;63.62;102344.38;5018390;28;45418;-91
2021/10/09 09:02:44;;;;;;;;;46.00;36.00;;;;;14.80;63.71;102335.78;5016792;28;45941;-80
2021/10/09 09:08:00;;;;;;;;;41.50;34.75;;;;;14.89;63.48;102338.00;5019474;28;45256;-87
2021/10/09 09:30:26;;;;;;;;;44.00;35.75;;;;;15.29;62.03;102345.22;5016314;28;45197;-79
2021/10/09 09:33:19;;;;;;;;;39.50;34.25;;;;;15.32;62.44;102329.72;5016124;28;45360;-79
2021/10/09 09:35:52;;;;;;;;;44.50;35.50;;;;;15.37;61.49;102333.47;5015441;28;46660;-79
2021/10/09 09:41:18;;;;;;;;;43.00;33.75;;;;;15.48;61.51;102331.38;5015587;28;45327;-80
2021/10/09 09:43:44;;;;;;;;;39.50;32.00;;;;;15.54;61.19;102342.16;5014693;28;45231;-79
2021/10/09 09:46:15;;;;;;;;;38.25;33.25;;;;;15.56;60.88;102332.66;5016753;28;46119;-79
2021/10/09 09:48:43;;;;;;;;;43.00;32.25;;;;;15.47;60.52;102319.16;5019420;28;46219;-79
2021/10/09 09:51:11;;;;;;;;;41.50;32.25;;;;;15.57;60.84;102334.44;5023079;28;45427;-78
2021/10/09 09:53:43;;;;;;;;;40.75;35.00;;;;;15.52;60.95;102316.75;5023198;28;45378;-79
2021/10/09 09:56:10;;;;;;;;;41.50;32.50;;;;;15.61;61.10;102328.56;5022808;28;45923;-78
2021/10/09 09:58:39;;;;;;;;;38.50;33.00;;;;;15.62;61.03;102316.38;5022276;28;45786;-78
2021/10/09 10:01:10;;;;;;;;;37.50;32.00;;;;;15.66;60.83;102314.84;5020880;28;45435;-78
2021/10/09 10:03:37;;;;;;;;;36.50;33.00;;;;;15.60;60.44;102305.00;5022791;28;45501;-79
2021/10/09 10:06:04;;;;;;;;;42.25;33.50;;;;;15.69;60.56;102317.59;5024294;28;45270;-80
2021/10/09 10:08:30;;;;;;;;;34.25;31.00;;;;;15.65;60.35;102313.94;5026985;28;45894;-82
2021/10/09 10:10:58;;;;;;;;;36.25;33.00;;;;;15.71;60.42;102318.56;5023273;28;45515;-79
2021/10/09 10:13:25;;;;;;;;;35.00;30.50;;;;;15.67;60.25;102307.06;5022950;28;45446;-78
2021/10/09 10:15:53;;;;;;;;;41.25;34.75;;;;;15.69;60.13;102305.44;5022523;28;46203;-78
2021/10/09 10:18:43;;;;;;;;;39.50;33.00;;;;;15.77;59.74;102309.31;5021096;28;46080;-78
2021/10/09 10:21:13;;;;;;;;;34.25;32.50;;;;;15.83;59.78;102313.94;5022333;28;45335;-78
2021/10/09 10:23:41;;;;;;;;;37.25;33.00;;;;;15.87;59.58;102308.06;5023207;28;45468;-79
2021/10/09 10:26:29;;;;;;;;;39.25;31.25;;;;;15.93;59.67;102302.19;5022019;28;46074;-78
2021/10/09 10:28:57;;;;;;;;;37.25;33.00;;;;;15.98;59.48;102308.56;5022521;28;45278;-80
2021/10/09 10:31:24;;;;;;;;;46.75;37.75;;;;;16.04;59.65;102303.59;5022461;28;45293;-80
2021/10/09 10:33:58;;;;;;;;;39.50;33.50;;;;;16.08;59.62;102309.91;5023215;28;45325;-79
2021/10/09 10:36:44;;;;;;;;;32.00;29.50;;;;;16.13;58.75;102310.97;5022316;28;45904;-80
2021/10/09 10:39:10;;;;;;;;;29.25;29.25;;;;;16.16;58.38;102307.59;5023335;28;45296;-80
2021/10/09 10:41:55;;;;;;;;;33.00;27.00;;;;;16.23;58.18;102313.19;5022026;28;45368;-80
2021/10/09 10:44:54;;;;;;;;;35.00;31.25;;;;;16.27;58.49;102309.00;5022053;28;45430;-79
2021/10/09 10:47:41;;;;;;;;;37.25;31.50;;;;;16.29;57.69;102312.56;5021701;28;46282;-81
2021/10/09 10:50:20;;;;;;;;;38.75;32.25;;;;;16.31;57.72;102303.09;5021978;28;45247;-79
2021/10/09 10:52:59;;;;;;;;;30.75;29.25;;;;;16.35;57.56;102310.25;5021913;28;45345;-82
2021/10/09 10:55:25;;;;;;;;;31.50;27.50;;;;;16.37;57.59;102294.63;5022684;28;45483;-81
2021/10/09 10:58:20;;;;;;;;;34.25;29.00;;;;;16.44;57.82;102301.03;5021822;28;46089;-79
2021/10/09 11:01:21;;;;;;;;;33.25;28.75;;;;;16.47;57.91;102298.53;5018424;28;45694;-79
2021/10/09 11:03:51;;;;;;;;;32.00;29.75;;;;;16.46;57.21;102300.25;5019156;28;45370;-79
2021/10/09 11:06:18;;;;;;;;;29.50;27.00;;;;;16.51;57.50;102296.16;5019856;28;45235;-80
2021/10/09 11:08:45;;;;;;;;;32.00;27.25;;;;;16.55;57.32;102295.44;5019332;28;45970;-81
2021/10/09 11:11:12;;;;;;;;;30.00;25.00;;;;;16.48;57.07;102279.41;5019306;28;45272;-80
2021/10/09 11:13:42;;;;;;;;;30.75;30.00;;;;;16.54;57.21;102277.09;5019449;28;45488;-81
2021/10/09 11:16:08;;;;;;;;;30.50;29.50;;;;;16.66;57.03;102290.69;5018218;28;45335;-79
2021/10/09 11:18:53;;;;;;;;;48.50;37.00;;;;;16.70;57.13;102294.34;5019052;28;45555;-80
2021/10/09 11:21:20;;;;;;;;;27.75;27.75;;;;;16.70;57.19;102287.38;5019055;28;45295;-84
2021/10/09 11:23:55;;;;;;;;;33.00;31.25;;;;;16.78;57.08;102290.31;5018664;28;45345;-82
2021/10/09 11:26:22;;;;;;;;;26.75;24.25;;;;;16.81;56.21;102282.63;5018946;28;45641;-80
2021/10/09 11:28:59;;;;;;;;;29.75;28.00;;;;;16.88;56.10;102289.00;5033205;28;48305;-81
2021/10/09 11:31:26;;;;;;;;;31.75;29.75;;;;;16.91;56.05;102289.09;5018164;28;45806;-81
2021/10/09 11:33:56;;;;;;;;;30.50;25.75;;;;;16.94;55.91;102298.88;5018581;28;45302;-78
2021/10/09 11:36:23;;;;;;;;;27.75;25.50;;;;;16.92;55.48;102279.56;5018432;28;45251;-79
2021/10/09 11:38:58;;;;;;;;;26.50;23.25;;;;;17.00;55.39;102281.72;5017425;28;45461;-80
2021/10/09 11:41:25;;;;;;;;;27.25;23.25;;;;;16.94;55.23;102265.75;5021310;28;45281;-78
2021/10/09 11:43:58;;;;;;;;;30.00;25.75;;;;;17.06;55.35;102273.19;5019741;28;45441;-81
2021/10/09 11:55:13;;;;;;;;;24.75;21.25;;;;;17.29;55.15;102268.94;5017706;28;45221;-78
2021/10/09 11:57:39;;;;;;;;;25.50;21.75;;;;;17.33;55.08;102259.47;5018691;28;45373;-80
2021/10/09 12:00:28;;;;;;;;;27.50;21.25;;;;;17.34;54.63;102256.00;5021751;28;45618;-85
2021/10/09 12:02:57;;;;;;;;;21.00;19.00;;;;;17.26;53.78;102242.63;5022434;28;45315;-80
2021/10/09 12:05:26;;;;;;;;;21.75;18.00;;;;;17.45;53.92;102265.19;5018971;28;45249;-80
2021/10/09 12:08:17;;;;;;;;;22.50;20.75;;;;;17.49;53.80;102264.47;5019599;28;45321;-79
2021/10/09 12:11:13;;;;;;;;;23.00;22.50;;;;;17.56;53.08;102254.25;5018361;28;45430;-79
2021/10/09 12:13:58;;;;;;;;;24.00;19.75;;;;;17.63;53.18;102253.66;5020294;28;45197;-80
2021/10/09 12:16:31;;;;;;;;;26.25;25.00;;;;;17.71;53.08;102257.44;5019385;28;45321;-81
2021/10/09 12:19:10;;;;;;;;;27.00;26.00;;;;;17.72;52.82;102247.88;5018872;28;45232;-79
2021/10/09 12:21:39;;;;;;;;;22.25;20.25;;;;;17.85;52.50;102247.53;5015977;28;47787;-81
2021/10/09 12:24:14;;;;;;;;;21.25;19.25;;;;;17.94;52.74;102247.88;5016706;28;45770;-82
2021/10/09 12:26:40;;;;;;;;;23.00;17.75;;;;;18.03;52.16;102242.09;5017606;28;45613;-80
2021/10/09 12:29:08;;;;;;;;;23.00;20.25;;;;;18.14;52.15;102241.63;5017617;28;45299;-78
2021/10/09 12:31:36;;;;;;;;;24.50;21.00;;;;;18.18;52.06;102238.25;5017530;28;45177;-81
2021/10/09 12:34:02;;;;;;;;;19.75;16.75;;;;;18.31;51.69;102234.34;5016978;28;45707;-82
2021/10/09 12:39:29;;;;;;;;;17.50;17.50;;;;;18.55;50.96;102231.72;5018231;28;45244;-81
2021/10/09 12:41:55;;;;;;;;;17.50;15.25;;;;;18.66;50.53;102229.44;5014123;28;45478;-87
2021/10/09 12:44:22;;;;;;;;;21.00;21.00;;;;;18.63;50.34;102203.09;5020191;28;45402;-80
2021/10/09 12:46:48;;;;;;;;;24.75;21.25;;;;;18.77;50.33;102208.81;5019200;28;45280;-83
2021/10/09 12:49:14;;;;;;;;;24.25;22.75;;;;;18.95;50.31;102227.81;5019977;28;45421;-78
2021/10/09 12:51:40;;;;;;;;;17.50;17.00;;;;;18.99;50.54;102208.72;5022665;28;45876;-85
2021/10/09 12:54:07;;;;;;;;;21.50;20.25;;;;;19.16;49.68;102224.13;5017918;28;45326;-83
2021/10/09 12:56:36;;;;;;;;;22.50;19.00;;;;;19.22;49.38;102212.91;5018439;28;45335;-80
2021/10/09 12:59:03;;;;;;;;;22.75;20.25;;;;;19.34;49.00;102213.31;5016572;28;45515;-81
2021/10/09 13:01:29;;;;;;;;;19.25;16.25;;;;;19.38;48.26;102203.78;5016999;28;46107;-84
2021/10/09 13:03:55;;;;;;;;;17.75;15.25;;;;;19.56;48.44;102217.47;5016572;28;45272;-82
2021/10/09 13:06:21;;;;;;;;;16.00;16.00;;;;;19.68;48.45;102218.69;5017152;28;45267;-83
2021/10/09 13:08:46;;;;;;;;;19.75;18.50;;;;;19.81;47.87;102218.19;5017148;28;45370;-81
2021/10/09 13:11:12;;;;;;;;;16.00;14.75;;;;;19.88;47.78;102204.41;5017141;28;45535;-82
2021/10/09 13:13:39;;;;;;;;;20.75;19.00;;;;;19.96;47.44;102194.13;5017171;28;45389;-81
2021/10/09 13:16:06;;;;;;;;;21.75;19.00;;;;;20.07;46.99;102203.19;5018178;28;45427;-81
2021/10/09 13:18:32;;;;;;;;;23.50;21.00;;;;;20.18;47.52;102205.22;5018172;28;45343;-85